2D5

Oakes Municipal Airport

Oakes, North Dakota, USA
METAR K2D5 211635Z AUTO 13012KT 7SM OVC007 M14/M15 A2997 RMK AO2 PWINO
Observed Flight Rules
Jan-21 @ 16:35 UTC (10 minutes ago) Instrument Flight Rules
Wind Visibility Clouds
130° at 12 knots 7 miles
  • Overcast at 700' AGL
Temperatures Readings
Current -14°C / 7°F
Dewpoint -15°C / 5°F
Humidity 92%
Altimeter 29.97" Hg
Pressure 1014.92 hPa
Elevation 407
METAR K2D5 211635Z AUTO 13012KT 7SM OVC007 M14/M15 A2997 RMK AO2 PWINO
Observed Flight Rules
Jan-21 @ 16:35 UTC
(10 minutes ago)
IFR
Wind Visibility
130° at 12 knots 7 miles
Clouds
  • Overcast at 700' AGL
Temperature Dewpoint
-14°C / 7°F -15°C / 5°F
Humidity Altimeter Pressure
92% 29.97" Hg 1014.92 hPa